Time;durP1;ratioP1;P1;durP2;ratioP2;P2;SDS_P1;SDS_P2;PMS_P1;PMS_P2;Temp;Humidity;BMP_temperature;BMP_pressure;BME280_temperature;BME280_humidity;BME280_pressure;Samples;Min_cycle;Max_cycle;Signal;HPM_P1;HPM_P2
2023/05/30 00:00:33;;;;;;;1.40;1.10;;;20.10;48.60;19.30;96602.00;;;;6050131;23;20854;-79
2023/05/30 00:03:04;;;;;;;1.40;1.17;;;20.10;48.90;19.30;96606.00;;;;6068522;23;20173;-79
2023/05/30 00:05:32;;;;;;;1.30;1.20;;;20.10;49.20;19.30;96606.00;;;;6067582;23;20173;-79
2023/05/30 00:07:59;;;;;;;2.77;1.20;;;20.10;49.40;19.20;96616.00;;;;6068205;23;20172;-79
2023/05/30 00:10:29;;;;;;;1.33;1.23;;;20.00;49.50;19.20;96617.00;;;;6068041;23;20227;-79
2023/05/30 00:12:57;;;;;;;1.53;1.43;;;20.00;49.50;19.20;96613.00;;;;6068583;23;20254;-80
2023/05/30 00:15:25;;;;;;;1.93;1.23;;;20.00;49.40;19.20;96618.00;;;;6067656;23;20176;-79
2023/05/30 00:17:53;;;;;;;1.73;0.97;;;19.90;49.50;19.20;96620.00;;;;6043895;23;20176;-78
2023/05/30 00:20:22;;;;;;;2.23;1.50;;;19.90;49.60;19.10;96627.00;;;;6069482;23;20196;-79
2023/05/30 00:22:49;;;;;;;1.60;1.30;;;19.90;49.70;19.10;96627.00;;;;6069134;23;20168;-79
2023/05/30 00:25:20;;;;;;;1.10;1.00;;;19.90;49.80;19.10;96622.00;;;;6068256;23;20203;-79
2023/05/30 00:27:49;;;;;;;1.30;1.20;;;19.90;49.80;19.10;96625.00;;;;6043050;23;20179;-79
2023/05/30 00:30:17;;;;;;;1.50;1.20;;;19.90;49.80;19.00;96625.00;;;;6020307;23;20172;-79
2023/05/30 00:32:44;;;;;;;1.90;1.40;;;19.80;49.60;19.00;96627.00;;;;6043574;23;20244;-77
2023/05/30 00:35:12;;;;;;;1.70;1.20;;;19.80;49.60;19.00;96631.00;;;;6068988;23;20207;-80
2023/05/30 00:37:39;;;;;;;1.23;1.13;;;19.80;49.70;18.90;96631.00;;;;6068758;23;20207;-79
2023/05/30 00:40:09;;;;;;;1.73;1.30;;;19.70;49.70;18.90;96626.00;;;;6069285;23;20223;-79
2023/05/30 00:42:36;;;;;;;1.80;1.20;;;19.70;49.70;18.90;96630.00;;;;6067903;23;20179;-78
2023/05/30 00:45:08;;;;;;;1.23;1.13;;;19.70;49.60;18.80;96623.00;;;;6042936;23;20279;-79
2023/05/30 00:47:36;;;;;;;2.77;1.40;;;19.70;49.60;18.80;96627.00;;;;6066584;23;20239;-79
2023/05/30 00:50:07;;;;;;;1.47;1.23;;;19.60;49.60;18.80;96624.00;;;;6040753;23;20188;-79
2023/05/30 00:52:35;;;;;;;1.10;1.10;;;19.60;49.70;18.80;96628.00;;;;6041790;23;20274;-79
2023/05/30 00:55:03;;;;;;;1.57;1.43;;;19.60;49.80;18.80;96617.00;;;;6041075;23;20263;-79
2023/05/30 00:57:33;;;;;;;1.60;1.50;;;19.60;49.80;18.70;96611.00;;;;6066112;23;20183;-79
2023/05/30 01:00:01;;;;;;;1.37;1.20;;;19.60;49.80;18.70;96623.00;;;;6067946;23;20202;-79
2023/05/30 01:02:34;;;;;;;1.40;1.30;;;19.50;49.80;18.70;96628.00;;;;6066302;23;20206;-79
2023/05/30 01:05:01;;;;;;;1.57;1.03;;;19.50;50.00;18.70;96628.00;;;;6067762;23;20192;-79
2023/05/30 01:07:29;;;;;;;1.53;1.20;;;19.50;50.00;18.70;96627.00;;;;6067996;23;20182;-79
2023/05/30 01:09:57;;;;;;;1.80;1.17;;;19.50;50.10;18.60;96626.00;;;;6042598;23;20681;-79
2023/05/30 01:12:37;;;;;;;1.80;1.23;;;19.40;50.10;18.60;96632.00;;;;6067774;23;20568;-79
2023/05/30 01:15:12;;;;;;;1.50;1.40;;;19.40;50.70;18.60;96620.00;;;;6042300;23;20337;-79
2023/05/30 01:17:57;;;;;;;1.73;1.20;;;19.40;50.10;18.60;96629.00;;;;6067687;23;20187;-79
2023/05/30 01:20:27;;;;;;;1.13;1.03;;;19.40;50.10;18.60;96629.00;;;;6067176;23;20657;-79
2023/05/30 01:23:27;;;;;;;1.47;1.37;;;19.40;50.00;18.50;96628.00;;;;6042254;23;20170;-79
2023/05/30 01:26:14;;;;;;;1.30;1.07;;;19.40;50.00;18.50;96628.00;;;;6067718;23;20263;-79
2023/05/30 01:28:46;;;;;;;2.97;1.73;;;19.40;49.90;18.50;96623.00;;;;6067435;23;20254;-79
2023/05/30 01:31:14;;;;;;;1.17;1.10;;;19.40;49.80;18.50;96629.00;;;;6019157;23;20638;-79
2023/05/30 01:33:45;;;;;;;1.73;1.37;;;19.40;49.70;18.50;96619.00;;;;6066375;23;20678;-79
2023/05/30 01:36:13;;;;;;;1.30;1.20;;;19.30;49.60;18.50;96627.00;;;;6067869;23;20460;-79
2023/05/30 01:38:40;;;;;;;2.07;1.40;;;19.30;49.50;18.50;96622.00;;;;6043032;23;20259;-80
2023/05/30 01:41:18;;;;;;;1.27;1.20;;;19.30;49.40;18.50;96620.00;;;;6020518;23;20199;-80
2023/05/30 01:43:57;;;;;;;1.80;1.50;;;19.30;49.40;18.50;96618.00;;;;6067298;23;20705;-79
2023/05/30 01:46:35;;;;;;;2.37;1.20;;;19.30;49.40;18.50;96620.00;;;;6067297;23;20266;-79
2023/05/30 01:49:17;;;;;;;1.27;1.17;;;19.30;49.60;18.50;96622.00;;;;6043230;23;20159;-79
2023/05/30 01:51:49;;;;;;;1.87;0.90;;;19.30;49.50;18.50;96620.00;;;;6068144;23;20198;-79
2023/05/30 01:54:20;;;;;;;3.03;1.03;;;19.30;49.50;18.50;96626.00;;;;6067276;23;20216;-79
2023/05/30 01:57:02;;;;;;;1.73;1.33;;;19.30;49.50;18.50;96630.00;;;;6043218;23;20259;-80
2023/05/30 01:59:32;;;;;;;1.37;1.20;;;19.30;49.40;18.50;96626.00;;;;6071682;23;20207;-79
2023/05/30 02:02:02;;;;;;;1.40;1.30;;;19.30;49.70;18.50;96624.00;;;;6046575;23;20200;-79
2023/05/30 02:04:30;;;;;;;1.43;1.33;;;19.30;49.80;18.50;96632.00;;;;6072818;23;20587;-79
2023/05/30 02:06:57;;;;;;;2.10;1.33;;;19.30;49.80;18.50;96631.00;;;;6075460;23;20177;-79
2023/05/30 02:09:25;;;;;;;1.83;1.23;;;19.30;49.70;18.50;96631.00;;;;6051177;23;20588;-79
2023/05/30 02:11:53;;;;;;;1.43;1.23;;;19.20;49.60;18.40;96628.00;;;;6051363;23;20215;-79
2023/05/30 02:14:22;;;;;;;2.03;1.43;;;19.20;49.70;18.40;96632.00;;;;6053766;23;20196;-78
2023/05/30 02:16:51;;;;;;;2.57;1.37;;;19.20;49.80;18.40;96623.00;;;;6056897;23;20180;-79
2023/05/30 02:19:19;;;;;;;1.27;1.07;;;19.20;49.80;18.40;96619.00;;;;6083499;23;20262;-79
2023/05/30 02:21:47;;;;;;;1.27;1.17;;;19.20;49.80;18.40;96619.00;;;;6060634;23;20279;-79
2023/05/30 02:24:15;;;;;;;1.13;1.03;;;19.20;49.90;18.30;96624.00;;;;6037235;23;20196;-78
2023/05/30 02:26:43;;;;;;;1.47;1.20;;;19.20;50.00;18.30;96620.00;;;;6079302;23;20184;-78
2023/05/30 02:29:10;;;;;;;1.40;1.10;;;19.10;50.10;18.30;96619.00;;;;6080044;23;20207;-79
2023/05/30 02:31:38;;;;;;;1.93;1.20;;;19.10;50.30;18.30;96616.00;;;;6078964;23;20211;-79
2023/05/30 02:34:06;;;;;;;5.03;1.40;;;19.10;50.50;18.30;96619.00;;;;6074143;23;20252;-79
2023/05/30 02:36:38;;;;;;;2.60;1.07;;;19.10;50.60;18.20;96628.00;;;;6074666;23;20199;-79
2023/05/30 02:39:07;;;;;;;1.53;1.30;;;19.10;50.60;18.20;96618.00;;;;6071538;23;20195;-78
2023/05/30 02:41:36;;;;;;;1.30;1.20;;;19.10;50.60;18.20;96626.00;;;;6069699;23;20199;-78
2023/05/30 02:44:04;;;;;;;1.50;1.20;;;19.00;50.70;18.10;96617.00;;;;6067519;23;20210;-79
2023/05/30 02:46:31;;;;;;;2.33;1.50;;;19.00;50.70;18.10;96618.00;;;;6068958;23;20603;-79
2023/05/30 02:48:59;;;;;;;2.50;1.60;;;19.00;50.80;18.10;96619.00;;;;6041953;23;20172;-79
2023/05/30 02:51:28;;;;;;;2.60;1.30;;;18.90;50.90;18.10;96617.00;;;;6041891;23;20180;-79
2023/05/30 02:53:55;;;;;;;1.63;1.50;;;18.90;51.00;18.00;96623.00;;;;6043163;23;20195;-79
2023/05/30 02:56:25;;;;;;;3.13;1.40;;;18.90;51.00;18.00;96622.00;;;;6067683;23;20259;-79
2023/05/30 02:58:56;;;;;;;2.87;1.50;;;18.90;51.10;18.00;96619.00;;;;6069640;23;20165;-79
2023/05/30 03:01:24;;;;;;;1.80;1.30;;;18.80;51.00;18.00;96616.00;;;;6091919;23;20204;-79
2023/05/30 03:03:53;;;;;;;1.37;1.27;;;18.80;51.20;18.00;96624.00;;;;6067238;23;20279;-79
2023/05/30 03:06:21;;;;;;;1.83;1.40;;;18.80;51.40;17.90;96618.00;;;;6066368;23;20172;-80
2023/05/30 03:08:58;;;;;;;1.20;1.10;;;18.80;51.60;17.90;96616.00;;;;6067182;23;20176;-79
2023/05/30 03:11:26;;;;;;;1.57;1.40;;;18.80;51.90;17.90;96615.00;;;;6067562;23;20176;-79
2023/05/30 03:13:55;;;;;;;1.47;1.37;;;18.70;51.60;17.90;96616.00;;;;6068497;23;20230;-79
2023/05/30 03:16:22;;;;;;;1.57;1.47;;;18.70;51.60;17.80;96622.00;;;;6068646;23;20582;-79
2023/05/30 03:18:50;;;;;;;1.67;1.40;;;18.70;51.70;17.80;96630.00;;;;6067703;23;20172;-80
2023/05/30 03:21:17;;;;;;;2.27;1.30;;;18.70;51.70;17.80;96624.00;;;;6068767;23;20200;-79
2023/05/30 03:23:44;;;;;;;1.33;1.23;;;18.70;51.70;17.80;96632.00;;;;6068578;23;20753;-81
2023/05/30 03:26:13;;;;;;;1.47;1.37;;;18.60;51.70;17.70;96627.00;;;;6067502;23;20207;-79
2023/05/30 03:28:40;;;;;;;1.40;1.30;;;18.60;52.30;17.70;96630.00;;;;6068957;23;20172;-79
2023/05/30 03:31:08;;;;;;;2.40;1.60;;;18.60;51.80;17.70;96626.00;;;;6066224;23;20250;-80
2023/05/30 03:33:35;;;;;;;1.40;1.30;;;18.60;51.90;17.70;96628.00;;;;6068591;23;20196;-80
2023/05/30 03:36:03;;;;;;;1.67;1.43;;;18.60;51.80;17.70;96630.00;;;;6067074;23;20196;-78
2023/05/30 03:38:30;;;;;;;2.17;1.60;;;18.50;51.70;17.70;96629.00;;;;6067837;23;20208;-79
2023/05/30 03:40:58;;;;;;;2.50;1.37;;;18.50;51.80;17.70;96628.00;;;;6065139;23;20168;-79
2023/05/30 03:43:27;;;;;;;2.53;1.77;;;18.50;51.90;17.70;96638.00;;;;6067384;23;20658;-79
2023/05/30 03:45:54;;;;;;;1.17;1.07;;;18.50;51.90;17.70;96634.00;;;;6066114;23;20255;-80
2023/05/30 03:48:22;;;;;;;4.60;1.60;;;18.50;52.00;17.70;96634.00;;;;6067287;23;20176;-79
2023/05/30 03:50:50;;;;;;;2.20;1.57;;;18.50;52.10;17.70;96639.00;;;;6067642;23;20642;-79
2023/05/30 03:53:18;;;;;;;1.57;1.47;;;18.50;52.20;17.70;96634.00;;;;6067522;23;20200;-80
2023/05/30 03:55:45;;;;;;;1.50;1.40;;;18.50;52.20;17.70;96647.00;;;;6068867;23;20207;-79
2023/05/30 03:58:12;;;;;;;2.13;1.60;;;18.50;52.20;17.70;96641.00;;;;6068594;23;20353;-79
2023/05/30 04:00:41;;;;;;;1.97;1.60;;;18.50;52.20;17.70;96641.00;;;;6067966;23;20245;-79
2023/05/30 04:03:09;;;;;;;3.47;1.43;;;18.50;52.30;17.70;96629.00;;;;6068909;23;20741;-79
2023/05/30 04:05:36;;;;;;;1.53;1.43;;;18.50;52.40;17.70;96641.00;;;;6067985;23;20255;-79
2023/05/30 04:08:03;;;;;;;1.90;1.80;;;18.50;52.40;17.70;96639.00;;;;6069245;23;20176;-80
2023/05/30 04:10:30;;;;;;;1.70;1.40;;;18.50;52.60;17.70;96639.00;;;;6043619;23;20515;-79
2023/05/30 04:12:58;;;;;;;1.77;1.63;;;18.50;52.60;17.70;96629.00;;;;6068138;23;20172;-79
2023/05/30 04:15:25;;;;;;;2.37;1.40;;;18.50;52.60;17.70;96641.00;;;;6043832;23;20510;-79
2023/05/30 04:17:57;;;;;;;1.50;1.40;;;18.50;52.70;17.70;96632.00;;;;6066862;23;20653;-79
2023/05/30 04:20:25;;;;;;;1.90;1.57;;;18.50;53.00;17.70;96627.00;;;;6068189;23;20172;-80
2023/05/30 04:22:52;;;;;;;1.97;1.50;;;18.50;53.00;17.70;96636.00;;;;6043877;23;20251;-79
2023/05/30 04:25:20;;;;;;;2.33;1.83;;;18.50;53.30;17.70;96644.00;;;;6068587;23;20270;-79
2023/05/30 04:27:49;;;;;;;2.17;1.53;;;18.50;53.60;17.70;96649.00;;;;6042532;23;20519;-80
2023/05/30 04:30:18;;;;;;;3.70;1.70;;;18.50;53.80;17.70;96654.00;;;;6043712;23;20187;-79
2023/05/30 04:32:45;;;;;;;1.70;1.60;;;18.50;53.70;17.70;96657.00;;;;6044190;23;20203;-79
2023/05/30 04:35:14;;;;;;;2.20;1.70;;;18.50;53.50;17.70;96651.00;;;;6045523;23;20208;-79
2023/05/30 04:37:44;;;;;;;2.23;1.70;;;18.60;53.70;17.70;96651.00;;;;6047124;23;20203;-79
2023/05/30 04:40:12;;;;;;;1.93;1.57;;;18.60;53.60;17.70;96654.00;;;;6053320;23;20262;-79
2023/05/30 04:42:41;;;;;;;2.37;1.37;;;18.60;53.50;17.70;96652.00;;;;6083096;23;20192;-79
2023/05/30 04:45:09;;;;;;;1.70;1.60;;;18.60;53.60;17.70;96659.00;;;;6083767;23;20192;-78
2023/05/30 04:47:38;;;;;;;3.77;1.73;;;18.60;53.50;17.70;96656.00;;;;6084669;23;20597;-79
2023/05/30 04:50:09;;;;;;;1.97;1.73;;;18.60;53.60;17.70;96661.00;;;;6085267;23;20180;-79
2023/05/30 04:52:40;;;;;;;2.03;1.70;;;18.60;54.00;17.70;96665.00;;;;6062309;23;20182;-78
2023/05/30 04:55:08;;;;;;;2.30;2.10;;;18.60;54.00;17.70;96665.00;;;;6087130;23;20196;-79
2023/05/30 04:57:37;;;;;;;1.80;1.70;;;18.60;53.80;17.70;96671.00;;;;6073299;23;20680;-79
2023/05/30 05:00:09;;;;;;;1.63;1.53;;;18.50;53.80;17.70;96670.00;;;;6071497;23;20558;-80
2023/05/30 05:02:38;;;;;;;2.40;1.63;;;18.60;54.00;17.80;96665.00;;;;6071485;23;20192;-79
2023/05/30 05:05:07;;;;;;;1.90;1.70;;;18.60;54.00;17.80;96672.00;;;;6044874;23;20200;-80
2023/05/30 05:07:35;;;;;;;1.97;1.73;;;18.60;54.00;17.80;96673.00;;;;6067255;23;20222;-79
2023/05/30 05:10:05;;;;;;;2.20;1.60;;;18.60;54.10;17.80;96675.00;;;;6070153;23;20515;-79
2023/05/30 05:12:32;;;;;;;2.60;2.10;;;18.60;54.20;17.90;96674.00;;;;6080904;23;20192;-79
2023/05/30 05:15:00;;;;;;;1.70;1.60;;;18.60;54.10;17.90;96673.00;;;;6055153;23;20195;-79
2023/05/30 05:17:27;;;;;;;1.80;1.70;;;18.70;54.20;17.90;96679.00;;;;6077445;23;20172;-79
2023/05/30 05:19:56;;;;;;;1.70;1.60;;;18.70;54.20;17.90;96687.00;;;;6050967;23;20177;-79
2023/05/30 05:22:23;;;;;;;3.23;1.70;;;18.70;54.40;18.00;96682.00;;;;6050131;23;20219;-79
2023/05/30 05:24:51;;;;;;;1.90;1.60;;;18.70;54.50;18.00;96677.00;;;;6073897;23;20253;-79
2023/05/30 05:27:20;;;;;;;2.10;1.90;;;18.80;54.70;18.10;96674.00;;;;6047345;23;20167;-79
2023/05/30 05:29:48;;;;;;;2.10;1.70;;;18.80;54.80;18.10;96672.00;;;;6047031;23;20208;-79
2023/05/30 05:32:16;;;;;;;1.77;1.57;;;18.80;54.80;18.20;96679.00;;;;6071373;23;20183;-78
2023/05/30 05:34:43;;;;;;;3.20;1.97;;;18.90;54.90;18.20;96672.00;;;;6073070;23;20235;-79
2023/05/30 05:37:10;;;;;;;3.50;2.03;;;18.90;54.90;18.30;96673.00;;;;6072237;23;20659;-78
2023/05/30 05:39:38;;;;;;;2.00;1.83;;;18.90;54.70;18.30;96686.00;;;;6071992;23;20640;-79
2023/05/30 05:42:06;;;;;;;1.73;1.60;;;19.00;54.60;18.40;96688.00;;;;6046781;23;20278;-78
2023/05/30 05:44:36;;;;;;;2.10;1.90;;;19.00;54.80;18.40;96694.00;;;;6075686;23;20224;-79
2023/05/30 05:47:04;;;;;;;2.30;2.10;;;19.10;55.10;18.50;96696.00;;;;6027789;23;20180;-79
2023/05/30 05:49:31;;;;;;;2.40;2.03;;;19.10;55.30;18.50;96697.00;;;;6051924;23;20199;-78
2023/05/30 05:51:59;;;;;;;3.23;2.37;;;19.20;55.30;18.60;96695.00;;;;6076797;23;20183;-79
2023/05/30 05:54:26;;;;;;;3.37;1.90;;;19.20;55.10;18.60;96697.00;;;;6077156;23;20203;-79
2023/05/30 05:56:53;;;;;;;2.33;1.90;;;19.30;55.20;18.70;96693.00;;;;6079971;23;20259;-79
2023/05/30 05:59:21;;;;;;;2.87;1.97;;;19.40;55.30;18.80;96684.00;;;;6076582;23;20176;-79
2023/05/30 06:01:49;;;;;;;3.07;1.87;;;19.40;55.10;18.80;96694.00;;;;6049696;23;20183;-79
2023/05/30 06:04:17;;;;;;;2.33;1.60;;;19.50;55.10;18.90;96689.00;;;;6075966;23;20203;-79
2023/05/30 06:06:44;;;;;;;2.23;2.03;;;19.50;54.90;19.00;96697.00;;;;6076582;23;20176;-79
2023/05/30 06:09:12;;;;;;;2.57;2.00;;;19.60;54.90;19.00;96698.00;;;;6027350;23;20255;-79
2023/05/30 06:11:39;;;;;;;4.40;2.20;;;19.60;54.70;19.10;96704.00;;;;6078172;23;20176;-79
2023/05/30 06:14:06;;;;;;;2.63;1.80;;;19.70;54.50;19.10;96707.00;;;;6081208;23;20199;-79
2023/05/30 06:16:35;;;;;;;2.47;1.90;;;19.70;54.30;19.20;96712.00;;;;6081897;23;20176;-77
2023/05/30 06:19:05;;;;;;;1.77;1.67;;;19.80;54.40;19.20;96710.00;;;;6055811;23;20982;-80
2023/05/30 06:21:33;;;;;;;3.13;2.13;;;19.90;54.60;19.30;96716.00;;;;6044271;23;20175;-81
2023/05/30 06:24:03;;;;;;;2.50;1.87;;;19.90;54.40;19.40;96720.00;;;;6079693;23;20196;-80
2023/05/30 06:26:30;;;;;;;2.03;1.67;;;20.00;54.40;19.50;96717.00;;;;6085033;23;20240;-80
2023/05/30 06:28:57;;;;;;;2.27;1.90;;;20.10;54.30;19.50;96717.00;;;;6054227;23;20665;-80
2023/05/30 06:31:25;;;;;;;2.53;2.33;;;20.10;54.20;19.60;96722.00;;;;6079454;23;20227;-81
2023/05/30 06:33:52;;;;;;;1.80;1.67;;;20.20;54.30;19.70;96732.00;;;;6067348;23;20192;-82
2023/05/30 06:36:21;;;;;;;2.37;1.83;;;20.20;54.10;19.70;96736.00;;;;6068025;23;20243;-80
2023/05/30 06:38:51;;;;;;;2.77;1.90;;;20.30;53.90;19.80;96735.00;;;;6044129;23;20247;-81
2023/05/30 06:41:19;;;;;;;3.03;1.90;;;20.40;53.80;19.80;96748.00;;;;6044319;23;20259;-81
2023/05/30 06:43:47;;;;;;;2.17;1.93;;;20.40;53.80;19.90;96741.00;;;;6070017;23;20208;-81
2023/05/30 06:46:14;;;;;;;2.63;1.90;;;20.50;53.80;19.90;96743.00;;;;6068529;23;20242;-81
2023/05/30 06:48:42;;;;;;;3.27;1.87;;;20.50;53.80;20.00;96739.00;;;;6043715;23;20172;-81
2023/05/30 06:51:10;;;;;;;2.10;1.60;;;20.60;54.00;20.10;96747.00;;;;6043157;23;20251;-82
2023/05/30 06:53:39;;;;;;;2.17;1.97;;;20.60;54.00;20.20;96743.00;;;;6068400;23;20228;-80
2023/05/30 06:56:07;;;;;;;2.17;1.73;;;20.70;54.10;20.20;96742.00;;;;6069369;23;20172;-81
2023/05/30 06:58:34;;;;;;;4.00;2.13;;;20.80;54.20;20.30;96743.00;;;;6071941;23;20255;-81
2023/05/30 07:01:02;;;;;;;2.67;2.00;;;20.90;54.50;20.40;96749.00;;;;6072725;23;20800;-82
2023/05/30 07:03:29;;;;;;;1.73;1.63;;;21.00;54.50;20.60;96751.00;;;;6071080;23;20202;-82
2023/05/30 07:05:57;;;;;;;2.60;2.23;;;21.00;54.40;20.70;96758.00;;;;6071863;23;20172;-81
2023/05/30 07:08:25;;;;;;;2.00;1.80;;;21.20;54.60;20.80;96746.00;;;;6074093;23;20174;-81
2023/05/30 07:10:55;;;;;;;2.07;1.97;;;21.30;54.40;21.00;96753.00;;;;6051463;23;20217;-82
2023/05/30 07:13:22;;;;;;;2.23;2.03;;;21.40;54.40;21.10;96756.00;;;;6076229;23;20197;-81
2023/05/30 07:15:50;;;;;;;1.80;1.70;;;21.50;54.80;21.30;96753.00;;;;6084344;23;20179;-81
2023/05/30 07:18:17;;;;;;;2.57;1.83;;;21.70;54.10;21.40;96760.00;;;;6089005;23;20211;-80
2023/05/30 07:20:45;;;;;;;3.80;1.83;;;21.80;54.00;21.60;96757.00;;;;6088789;23;20190;-79
2023/05/30 07:23:13;;;;;;;2.40;1.90;;;22.00;53.70;21.70;96751.00;;;;6080986;23;20202;-82
2023/05/30 07:25:42;;;;;;;2.00;1.57;;;22.10;53.60;21.90;96756.00;;;;6058744;23;20211;-82
2023/05/30 07:28:12;;;;;;;2.80;1.83;;;22.20;53.50;22.00;96753.00;;;;6065443;23;20207;-82
2023/05/30 07:30:40;;;;;;;2.33;1.83;;;22.40;53.20;22.20;96757.00;;;;6067756;23;20176;-82
2023/05/30 07:33:07;;;;;;;2.40;1.70;;;22.60;52.90;22.30;96750.00;;;;6066278;23;20200;-83
2023/05/30 07:35:34;;;;;;;2.67;1.90;;;22.70;52.70;22.50;96754.00;;;;6067871;23;20223;-83
2023/05/30 07:38:01;;;;;;;3.43;1.93;;;22.80;52.30;22.60;96749.00;;;;6070711;23;20228;-81
2023/05/30 07:40:29;;;;;;;1.67;1.57;;;23.00;52.20;22.70;96742.00;;;;6070640;23;20176;-81
2023/05/30 07:42:56;;;;;;;1.87;1.77;;;23.10;52.10;22.90;96745.00;;;;6070519;23;20275;-81
2023/05/30 07:45:25;;;;;;;2.40;1.83;;;23.30;52.20;23.00;96753.00;;;;6071521;23;20262;-81
2023/05/30 07:47:53;;;;;;;2.23;1.70;;;23.40;52.10;23.10;96752.00;;;;6070993;23;20571;-82
2023/05/30 07:50:20;;;;;;;2.07;1.70;;;23.50;51.90;23.30;96755.00;;;;6073230;23;20205;-81
2023/05/30 07:52:47;;;;;;;2.80;1.70;;;23.70;51.80;23.40;96759.00;;;;6072948;23;20222;-81
2023/05/30 07:55:15;;;;;;;2.27;2.00;;;23.80;51.40;23.50;96744.00;;;;6071596;23;20222;-81
2023/05/30 07:57:42;;;;;;;1.80;1.70;;;23.90;51.20;23.70;96742.00;;;;6070029;23;20259;-84
2023/05/30 08:00:11;;;;;;;2.03;1.83;;;24.00;50.90;23.80;96748.00;;;;6066477;23;20213;-80
2023/05/30 08:02:40;;;;;;;2.70;1.80;;;24.10;50.70;23.90;96744.00;;;;6071649;23;20176;-81
2023/05/30 08:05:08;;;;;;;3.47;1.60;;;24.30;50.50;24.00;96740.00;;;;6069360;23;20226;-81
2023/05/30 08:07:35;;;;;;;2.17;1.80;;;24.40;49.90;24.10;96743.00;;;;6068163;23;20206;-81
2023/05/30 08:10:03;;;;;;;3.37;1.80;;;24.50;49.50;24.20;96745.00;;;;6065062;23;20249;-82
2023/05/30 08:12:30;;;;;;;2.40;1.70;;;24.60;48.90;24.30;96750.00;;;;6067303;23;20235;-81
2023/05/30 08:14:58;;;;;;;1.70;1.60;;;24.70;49.00;24.50;96747.00;;;;6069648;23;20271;-81
2023/05/30 08:17:29;;;;;;;1.77;1.50;;;24.80;48.70;24.50;96756.00;;;;6070221;23;20247;-81
2023/05/30 08:20:00;;;;;;;2.97;1.70;;;24.90;48.60;24.60;96755.00;;;;6069268;23;20207;-81
2023/05/30 08:22:27;;;;;;;2.53;1.73;;;25.00;48.40;24.80;96766.00;;;;6071507;23;20180;-80
2023/05/30 08:24:59;;;;;;;2.63;1.53;;;25.10;47.90;24.90;96752.00;;;;6072506;23;20725;-80
2023/05/30 08:27:27;;;;;;;3.20;1.70;;;25.20;48.00;25.00;96753.00;;;;6071489;23;20172;-81
2023/05/30 08:29:56;;;;;;;2.70;1.50;;;25.40;48.40;25.20;96762.00;;;;6073715;23;20172;-81
2023/05/30 08:32:24;;;;;;;2.27;1.60;;;25.50;48.30;25.30;96769.00;;;;6026870;23;20200;-80
2023/05/30 08:34:52;;;;;;;2.47;1.70;;;25.60;48.30;25.40;96765.00;;;;6074770;23;20230;-82
2023/05/30 08:37:21;;;;;;;2.27;1.30;;;25.70;48.00;25.60;96759.00;;;;6049814;23;20176;-81
2023/05/30 08:39:48;;;;;;;2.37;1.60;;;25.90;47.60;25.70;96765.00;;;;6075513;23;20179;-81
2023/05/30 08:42:16;;;;;;;1.57;1.47;;;26.00;47.40;25.90;96766.00;;;;6075365;23;20172;-82
2023/05/30 08:44:43;;;;;;;2.07;1.87;;;26.10;47.00;26.00;96769.00;;;;6076098;23;20537;-81
2023/05/30 08:47:12;;;;;;;2.03;1.70;;;26.30;47.00;26.10;96766.00;;;;6072430;23;20228;-81
2023/05/30 08:49:42;;;;;;;3.03;1.60;;;26.40;46.60;26.30;96769.00;;;;6075850;23;20176;-82
2023/05/30 08:52:14;;;;;;;1.60;1.50;;;26.60;46.30;26.40;96769.00;;;;6048917;23;20176;-82
2023/05/30 08:54:54;;;;;;;2.50;1.50;;;26.70;45.80;26.50;96775.00;;;;6074273;23;20576;-82
2023/05/30 08:57:30;;;;;;;2.13;1.70;;;26.80;45.50;26.70;96771.00;;;;6074644;23;20244;-82
2023/05/30 08:59:59;;;;;;;1.83;1.50;;;27.00;45.70;26.80;96774.00;;;;6075456;23;20172;-82
2023/05/30 09:02:28;;;;;;;2.70;1.60;;;27.10;45.50;27.00;96771.00;;;;6067990;23;20203;-84
2023/05/30 09:04:59;;;;;;;3.30;1.70;;;27.30;45.50;27.10;96772.00;;;;6067957;23;20283;-83
2023/05/30 09:07:29;;;;;;;1.63;1.53;;;27.30;44.80;27.20;96776.00;;;;6043359;23;20191;-82
2023/05/30 09:09:59;;;;;;;2.20;1.70;;;27.50;44.50;27.30;96771.00;;;;6066227;23;20231;-82
2023/05/30 09:12:27;;;;;;;3.33;2.00;;;27.60;44.20;27.40;96773.00;;;;6066910;23;20246;-81
2023/05/30 09:14:55;;;;;;;2.30;1.23;;;27.70;44.30;27.50;96776.00;;;;6066210;23;20238;-82
2023/05/30 09:17:22;;;;;;;2.20;1.40;;;27.80;44.40;27.60;96785.00;;;;6039948;23;20670;-82
2023/05/30 09:19:53;;;;;;;2.33;1.83;;;27.90;44.30;27.80;96776.00;;;;6064987;23;20168;-82
2023/05/30 09:22:21;;;;;;;2.13;1.58;;;28.10;44.30;27.90;96782.00;;;;6064062;23;20164;-82
2023/05/30 09:24:58;;;;;;;2.88;1.27;;;28.30;44.00;28.00;96783.00;;;;6041591;23;20204;-82
2023/05/30 09:27:25;;;;;;;1.58;1.48;;;28.40;43.10;28.20;96782.00;;;;6067184;23;20251;-83
2023/05/30 09:29:53;;;;;;;1.80;1.50;;;28.50;43.20;28.30;96788.00;;;;6042043;23;20227;-83
2023/05/30 09:32:21;;;;;;;2.58;1.45;;;28.70;42.90;28.40;96787.00;;;;6066728;23;20199;-84
2023/05/30 09:34:57;;;;;;;2.78;1.80;;;28.90;42.80;28.50;96786.00;;;;6041013;23;20203;-83
2023/05/30 09:37:24;;;;;;;1.75;1.60;;;29.00;42.10;28.70;96789.00;;;;6065335;23;20180;-82
2023/05/30 09:40:12;;;;;;;1.70;1.58;;;29.20;42.60;28.80;96793.00;;;;6067447;23;20228;-82
2023/05/30 09:42:41;;;;;;;1.60;1.50;;;29.40;42.80;29.00;96794.00;;;;6074101;23;20164;-83
2023/05/30 09:45:11;;;;;;;3.30;1.60;;;29.60;42.50;29.20;96796.00;;;;6053068;23;20207;-82
2023/05/30 09:47:44;;;;;;;3.35;1.85;;;29.70;42.20;29.40;96792.00;;;;6076933;23;20180;-84
2023/05/30 09:50:14;;;;;;;1.98;1.70;;;30.00;42.00;29.60;96786.00;;;;6053672;23;20176;-82
2023/05/30 09:52:42;;;;;;;1.50;1.40;;;30.20;42.40;29.80;96795.00;;;;6073175;23;20207;-82
2023/05/30 09:55:15;;;;;;;1.50;1.40;;;30.40;42.40;29.90;96793.00;;;;6066024;23;20212;-83
2023/05/30 09:57:49;;;;;;;1.55;1.45;;;30.60;40.80;30.10;96789.00;;;;6039747;23;20176;-81
2023/05/30 10:00:22;;;;;;;1.40;1.30;;;30.80;40.90;30.20;96799.00;;;;6042750;23;20182;-83
2023/05/30 10:02:54;;;;;;;1.70;1.40;;;30.90;41.10;30.30;96798.00;;;;6042296;23;20191;-83
2023/05/30 10:05:23;;;;;;;5.75;1.70;;;31.10;40.90;30.50;96799.00;;;;6066889;23;20517;-82
2023/05/30 10:07:52;;;;;;;1.67;1.58;;;31.20;40.30;30.60;96798.00;;;;6041822;23;20183;-84
2023/05/30 10:10:21;;;;;;;3.40;1.52;;;31.40;40.40;30.70;96791.00;;;;6066595;23;20199;-83
2023/05/30 10:12:52;;;;;;;1.58;1.27;;;31.50;40.10;30.80;96807.00;;;;6066740;23;20255;-83
2023/05/30 10:15:21;;;;;;;2.63;1.45;;;31.60;39.90;30.90;96800.00;;;;6041691;23;20176;-82
2023/05/30 10:17:54;;;;;;;3.40;1.50;;;31.70;39.30;31.00;96801.00;;;;6066699;23;20172;-83
2023/05/30 10:20:26;;;;;;;1.50;1.40;;;31.80;39.50;31.10;96796.00;;;;6067953;23;20184;-82
2023/05/30 10:22:54;;;;;;;1.35;1.13;;;31.90;39.40;31.20;96800.00;;;;6043622;23;20243;-81
2023/05/30 10:25:28;;;;;;;1.92;1.35;;;32.00;39.30;31.30;96793.00;;;;6068028;23;20238;-80
2023/05/30 10:28:00;;;;;;;2.05;1.30;;;32.00;38.60;31.40;96792.00;;;;6068496;23;20172;-80
2023/05/30 10:30:30;;;;;;;1.42;1.20;;;32.10;38.60;31.50;96788.00;;;;6043342;23;20187;-81
2023/05/30 10:33:04;;;;;;;1.33;1.23;;;32.10;38.90;31.60;96783.00;;;;6019623;23;20183;-81
2023/05/30 10:35:34;;;;;;;1.42;1.33;;;32.20;38.70;31.70;96781.00;;;;6069049;23;20690;-80
2023/05/30 10:38:04;;;;;;;2.30;1.85;;;32.20;38.50;31.70;96784.00;;;;6069614;23;20554;-81
2023/05/30 10:40:54;;;;;;;1.50;1.40;;;32.20;38.40;31.80;96785.00;;;;6068913;23;20247;-82
2023/05/30 10:43:42;;;;;;;1.65;1.38;;;32.20;37.00;31.90;96776.00;;;;6067813;23;20890;-81
2023/05/30 10:46:24;;;;;;;1.30;1.20;;;32.20;37.50;31.90;96783.00;;;;6019406;23;20180;-81
2023/05/30 10:48:59;;;;;;;2.08;1.40;;;32.30;37.50;32.00;96782.00;;;;6045796;23;20175;-81
2023/05/30 10:51:27;;;;;;;1.80;1.33;;;32.30;37.00;31.90;96775.00;;;;6043793;23;20171;-81
2023/05/30 10:53:55;;;;;;;1.33;1.23;;;32.30;36.20;31.90;96775.00;;;;6066010;23;20266;-81
2023/05/30 10:56:41;;;;;;;2.50;1.20;;;32.20;36.20;31.70;96775.00;;;;6039748;23;20626;-82
2023/05/30 10:59:16;;;;;;;1.40;1.30;;;32.10;35.40;31.60;96772.00;;;;6067424;23;20164;-81
2023/05/30 11:02:00;;;;;;;1.40;1.27;;;32.00;35.20;31.40;96772.00;;;;6064435;23;20190;-82
2023/05/30 11:04:34;;;;;;;1.42;1.33;;;31.90;34.80;31.30;96769.00;;;;6065040;23;20204;-80